sensor_id;sensor_type;location;lat;lon;timestamp;P1;durP1;ratioP1;P2;durP2;ratioP2
71176;SDS011;58877;51.992;4.504;2022-10-28T00:01:27;6.43;;;6.43;;
71176;SDS011;58877;51.992;4.504;2022-10-28T00:03:56;6.71;;;6.71;;
71176;SDS011;58877;51.992;4.504;2022-10-28T00:06:25;7.66;;;7.66;;
71176;SDS011;58877;51.992;4.504;2022-10-28T00:08:54;7.04;;;7.02;;
71176;SDS011;58877;51.992;4.504;2022-10-28T00:11:23;6.68;;;6.67;;
71176;SDS011;58877;51.992;4.504;2022-10-28T00:13:52;6.91;;;6.89;;
71176;SDS011;58877;51.992;4.504;2022-10-28T00:16:20;7.52;;;7.52;;
71176;SDS011;58877;51.992;4.504;2022-10-28T00:18:48;7.38;;;7.36;;
71176;SDS011;58877;51.992;4.504;2022-10-28T00:21:21;7.09;;;7.07;;
71176;SDS011;58877;51.992;4.504;2022-10-28T00:23:57;6.60;;;6.57;;
71176;SDS011;58877;51.992;4.504;2022-10-28T00:26:24;6.97;;;6.94;;
71176;SDS011;58877;51.992;4.504;2022-10-28T00:28:56;7.10;;;7.10;;
71176;SDS011;58877;51.992;4.504;2022-10-28T00:31:25;7.41;;;7.40;;
71176;SDS011;58877;51.992;4.504;2022-10-28T00:33:55;7.06;;;7.06;;
71176;SDS011;58877;51.992;4.504;2022-10-28T00:36:29;7.19;;;7.19;;
71176;SDS011;58877;51.992;4.504;2022-10-28T00:38:57;6.64;;;6.64;;
71176;SDS011;58877;51.992;4.504;2022-10-28T00:41:28;6.82;;;6.82;;
71176;SDS011;58877;51.992;4.504;2022-10-28T00:43:57;6.76;;;6.76;;
71176;SDS011;58877;51.992;4.504;2022-10-28T00:46:27;7.08;;;7.06;;
71176;SDS011;58877;51.992;4.504;2022-10-28T00:48:58;7.18;;;7.18;;
71176;SDS011;58877;51.992;4.504;2022-10-28T00:51:45;6.29;;;6.29;;
71176;SDS011;58877;51.992;4.504;2022-10-28T00:54:16;6.65;;;6.65;;
71176;SDS011;58877;51.992;4.504;2022-10-28T00:56:45;6.27;;;6.27;;
71176;SDS011;58877;51.992;4.504;2022-10-28T00:59:20;6.83;;;6.83;;
71176;SDS011;58877;51.992;4.504;2022-10-28T01:02:01;6.27;;;6.27;;
71176;SDS011;58877;51.992;4.504;2022-10-28T01:04:29;6.77;;;6.77;;
71176;SDS011;58877;51.992;4.504;2022-10-28T01:06:56;7.06;;;7.06;;
71176;SDS011;58877;51.992;4.504;2022-10-28T01:09:25;6.78;;;6.78;;
71176;SDS011;58877;51.992;4.504;2022-10-28T01:14:41;6.57;;;6.57;;
71176;SDS011;58877;51.992;4.504;2022-10-28T01:21:11;6.97;;;6.95;;
71176;SDS011;58877;51.992;4.504;2022-10-28T01:31:52;6.58;;;6.56;;
71176;SDS011;58877;51.992;4.504;2022-10-28T01:34:47;6.30;;;6.28;;
71176;SDS011;58877;51.992;4.504;2022-10-28T01:37:36;6.71;;;6.67;;
71176;SDS011;58877;51.992;4.504;2022-10-28T01:45:40;6.58;;;6.58;;
71176;SDS011;58877;51.992;4.504;2022-10-28T01:48:15;6.82;;;6.80;;
71176;SDS011;58877;51.992;4.504;2022-10-28T01:51:21;6.47;;;6.45;;
71176;SDS011;58877;51.992;4.504;2022-10-28T01:53:56;6.76;;;6.76;;
71176;SDS011;58877;51.992;4.504;2022-10-28T01:56:28;6.82;;;6.81;;
71176;SDS011;58877;51.992;4.504;2022-10-28T01:59:04;6.59;;;6.58;;
71176;SDS011;58877;51.992;4.504;2022-10-28T02:01:38;6.18;;;6.18;;
71176;SDS011;58877;51.992;4.504;2022-10-28T02:04:08;6.28;;;6.28;;
71176;SDS011;58877;51.992;4.504;2022-10-28T02:06:37;7.00;;;6.98;;
71176;SDS011;58877;51.992;4.504;2022-10-28T02:09:09;6.44;;;6.34;;
71176;SDS011;58877;51.992;4.504;2022-10-28T02:20:42;6.65;;;6.57;;
71176;SDS011;58877;51.992;4.504;2022-10-28T02:26:04;5.93;;;5.86;;
71176;SDS011;58877;51.992;4.504;2022-10-28T02:31:37;5.86;;;5.78;;
71176;SDS011;58877;51.992;4.504;2022-10-28T02:34:19;6.05;;;6.02;;
71176;SDS011;58877;51.992;4.504;2022-10-28T02:37:11;6.10;;;6.08;;
71176;SDS011;58877;51.992;4.504;2022-10-28T02:39:53;5.80;;;5.76;;
71176;SDS011;58877;51.992;4.504;2022-10-28T02:42:27;5.93;;;5.87;;
71176;SDS011;58877;51.992;4.504;2022-10-28T02:45:14;5.36;;;5.34;;
71176;SDS011;58877;51.992;4.504;2022-10-28T02:47:45;5.55;;;5.52;;
71176;SDS011;58877;51.992;4.504;2022-10-28T02:50:33;5.91;;;5.84;;
71176;SDS011;58877;51.992;4.504;2022-10-28T02:53:11;5.85;;;5.77;;
71176;SDS011;58877;51.992;4.504;2022-10-28T02:55:45;5.78;;;5.77;;
71176;SDS011;58877;51.992;4.504;2022-10-28T02:58:23;5.48;;;5.41;;
71176;SDS011;58877;51.992;4.504;2022-10-28T03:00:52;5.49;;;5.43;;
71176;SDS011;58877;51.992;4.504;2022-10-28T03:03:23;5.68;;;5.66;;
71176;SDS011;58877;51.992;4.504;2022-10-28T03:05:59;5.36;;;5.34;;
71176;SDS011;58877;51.992;4.504;2022-10-28T03:11:21;5.64;;;5.55;;
71176;SDS011;58877;51.992;4.504;2022-10-28T03:13:58;6.24;;;6.14;;
71176;SDS011;58877;51.992;4.504;2022-10-28T03:16:23;5.69;;;5.63;;
71176;SDS011;58877;51.992;4.504;2022-10-28T03:18:53;5.35;;;5.29;;
71176;SDS011;58877;51.992;4.504;2022-10-28T03:21:24;5.74;;;5.62;;
71176;SDS011;58877;51.992;4.504;2022-10-28T03:23:52;5.31;;;5.25;;
71176;SDS011;58877;51.992;4.504;2022-10-28T03:26:18;5.69;;;5.61;;
71176;SDS011;58877;51.992;4.504;2022-10-28T03:28:46;5.39;;;5.36;;
71176;SDS011;58877;51.992;4.504;2022-10-28T03:31:15;5.58;;;5.54;;
71176;SDS011;58877;51.992;4.504;2022-10-28T03:33:41;5.57;;;5.51;;
71176;SDS011;58877;51.992;4.504;2022-10-28T03:36:12;5.78;;;5.68;;
71176;SDS011;58877;51.992;4.504;2022-10-28T03:38:38;5.97;;;5.82;;
71176;SDS011;58877;51.992;4.504;2022-10-28T03:41:08;5.49;;;5.33;;
71176;SDS011;58877;51.992;4.504;2022-10-28T03:43:34;5.72;;;5.67;;
71176;SDS011;58877;51.992;4.504;2022-10-28T03:46:03;6.01;;;5.88;;
71176;SDS011;58877;51.992;4.504;2022-10-28T03:48:29;5.39;;;5.29;;
71176;SDS011;58877;51.992;4.504;2022-10-28T03:51:00;5.65;;;5.56;;
71176;SDS011;58877;51.992;4.504;2022-10-28T03:53:31;5.82;;;5.66;;
71176;SDS011;58877;51.992;4.504;2022-10-28T03:56:02;5.73;;;5.59;;
71176;SDS011;58877;51.992;4.504;2022-10-28T03:58:34;5.78;;;5.62;;
71176;SDS011;58877;51.992;4.504;2022-10-28T04:01:09;5.64;;;5.55;;
71176;SDS011;58877;51.992;4.504;2022-10-28T04:03:41;5.40;;;5.29;;
71176;SDS011;58877;51.992;4.504;2022-10-28T04:06:10;5.41;;;5.36;;
71176;SDS011;58877;51.992;4.504;2022-10-28T04:08:44;5.21;;;5.11;;
71176;SDS011;58877;51.992;4.504;2022-10-28T04:11:12;5.58;;;5.48;;
71176;SDS011;58877;51.992;4.504;2022-10-28T04:13:47;5.22;;;5.08;;
71176;SDS011;58877;51.992;4.504;2022-10-28T04:16:20;5.46;;;5.24;;
71176;SDS011;58877;51.992;4.504;2022-10-28T04:18:46;5.29;;;5.14;;
71176;SDS011;58877;51.992;4.504;2022-10-28T04:21:21;5.00;;;4.91;;
71176;SDS011;58877;51.992;4.504;2022-10-28T04:23:47;5.26;;;5.13;;
71176;SDS011;58877;51.992;4.504;2022-10-28T04:26:19;5.47;;;5.26;;
71176;SDS011;58877;51.992;4.504;2022-10-28T04:28:50;5.18;;;5.06;;
71176;SDS011;58877;51.992;4.504;2022-10-28T04:31:26;4.96;;;4.88;;
71176;SDS011;58877;51.992;4.504;2022-10-28T04:34:00;5.75;;;5.58;;
71176;SDS011;58877;51.992;4.504;2022-10-28T04:36:29;5.51;;;5.32;;
71176;SDS011;58877;51.992;4.504;2022-10-28T04:38:57;5.56;;;5.35;;
71176;SDS011;58877;51.992;4.504;2022-10-28T04:41:23;5.13;;;4.94;;
71176;SDS011;58877;51.992;4.504;2022-10-28T04:43:52;5.54;;;5.25;;
71176;SDS011;58877;51.992;4.504;2022-10-28T04:46:32;5.12;;;4.95;;
71176;SDS011;58877;51.992;4.504;2022-10-28T04:49:00;5.29;;;5.17;;
71176;SDS011;58877;51.992;4.504;2022-10-28T04:51:32;5.10;;;4.91;;
71176;SDS011;58877;51.992;4.504;2022-10-28T04:53:58;5.19;;;4.97;;
71176;SDS011;58877;51.992;4.504;2022-10-28T04:56:24;5.10;;;4.96;;
71176;SDS011;58877;51.992;4.504;2022-10-28T04:58:55;5.06;;;4.99;;
71176;SDS011;58877;51.992;4.504;2022-10-28T05:01:27;5.16;;;5.09;;
71176;SDS011;58877;51.992;4.504;2022-10-28T05:04:13;5.32;;;5.12;;
71176;SDS011;58877;51.992;4.504;2022-10-28T05:06:39;5.48;;;5.26;;
71176;SDS011;58877;51.992;4.504;2022-10-28T05:09:12;5.76;;;5.57;;
71176;SDS011;58877;51.992;4.504;2022-10-28T05:11:41;5.39;;;5.15;;
71176;SDS011;58877;51.992;4.504;2022-10-28T05:14:12;4.91;;;4.77;;
71176;SDS011;58877;51.992;4.504;2022-10-28T05:16:42;4.67;;;4.52;;
71176;SDS011;58877;51.992;4.504;2022-10-28T05:19:08;5.09;;;4.94;;
71176;SDS011;58877;51.992;4.504;2022-10-28T05:21:37;5.11;;;4.95;;
71176;SDS011;58877;51.992;4.504;2022-10-28T05:24:03;4.96;;;4.78;;
71176;SDS011;58877;51.992;4.504;2022-10-28T05:26:29;5.07;;;4.82;;
71176;SDS011;58877;51.992;4.504;2022-10-28T05:28:57;5.95;;;5.51;;
71176;SDS011;58877;51.992;4.504;2022-10-28T05:31:24;5.65;;;5.30;;
71176;SDS011;58877;51.992;4.504;2022-10-28T05:33:55;5.17;;;4.87;;
71176;SDS011;58877;51.992;4.504;2022-10-28T05:36:20;5.48;;;5.18;;
71176;SDS011;58877;51.992;4.504;2022-10-28T05:38:46;4.81;;;4.57;;
71176;SDS011;58877;51.992;4.504;2022-10-28T05:41:13;5.40;;;5.14;;
71176;SDS011;58877;51.992;4.504;2022-10-28T05:43:39;4.93;;;4.77;;
71176;SDS011;58877;51.992;4.504;2022-10-28T05:46:04;5.04;;;4.80;;
71176;SDS011;58877;51.992;4.504;2022-10-28T05:48:30;5.45;;;5.14;;
71176;SDS011;58877;51.992;4.504;2022-10-28T05:50:56;4.89;;;4.65;;
71176;SDS011;58877;51.992;4.504;2022-10-28T05:53:21;5.39;;;5.19;;
71176;SDS011;58877;51.992;4.504;2022-10-28T05:55:47;4.98;;;4.83;;
71176;SDS011;58877;51.992;4.504;2022-10-28T05:58:15;5.15;;;4.90;;
71176;SDS011;58877;51.992;4.504;2022-10-28T06:01:06;4.87;;;4.65;;
71176;SDS011;58877;51.992;4.504;2022-10-28T06:07:29;5.03;;;4.72;;
71176;SDS011;58877;51.992;4.504;2022-10-28T06:09:55;5.02;;;4.72;;
71176;SDS011;58877;51.992;4.504;2022-10-28T06:12:20;5.34;;;5.05;;
71176;SDS011;58877;51.992;4.504;2022-10-28T06:14:46;4.83;;;4.61;;
71176;SDS011;58877;51.992;4.504;2022-10-28T06:17:11;4.82;;;4.72;;
71176;SDS011;58877;51.992;4.504;2022-10-28T06:19:37;4.96;;;4.76;;
71176;SDS011;58877;51.992;4.504;2022-10-28T06:22:02;5.36;;;5.18;;
71176;SDS011;58877;51.992;4.504;2022-10-28T06:24:27;4.78;;;4.59;;
71176;SDS011;58877;51.992;4.504;2022-10-28T06:26:56;4.95;;;4.77;;
71176;SDS011;58877;51.992;4.504;2022-10-28T06:29:22;5.26;;;4.94;;
71176;SDS011;58877;51.992;4.504;2022-10-28T06:31:48;5.57;;;5.23;;
71176;SDS011;58877;51.992;4.504;2022-10-28T06:34:14;5.48;;;5.15;;
71176;SDS011;58877;51.992;4.504;2022-10-28T06:36:39;5.59;;;5.21;;
71176;SDS011;58877;51.992;4.504;2022-10-28T06:39:05;5.14;;;4.90;;
71176;SDS011;58877;51.992;4.504;2022-10-28T06:41:31;5.24;;;5.01;;
71176;SDS011;58877;51.992;4.504;2022-10-28T06:43:57;4.95;;;4.72;;
71176;SDS011;58877;51.992;4.504;2022-10-28T06:46:23;5.41;;;5.20;;
71176;SDS011;58877;51.992;4.504;2022-10-28T06:48:48;5.14;;;5.01;;
71176;SDS011;58877;51.992;4.504;2022-10-28T06:51:14;5.11;;;4.93;;
71176;SDS011;58877;51.992;4.504;2022-10-28T06:53:41;5.96;;;5.81;;
71176;SDS011;58877;51.992;4.504;2022-10-28T06:56:07;6.50;;;6.37;;
71176;SDS011;58877;51.992;4.504;2022-10-28T06:58:34;5.79;;;5.65;;
71176;SDS011;58877;51.992;4.504;2022-10-28T07:01:03;5.40;;;5.23;;
71176;SDS011;58877;51.992;4.504;2022-10-28T07:03:29;5.50;;;5.31;;
71176;SDS011;58877;51.992;4.504;2022-10-28T07:05:57;5.18;;;5.00;;
71176;SDS011;58877;51.992;4.504;2022-10-28T07:08:23;5.13;;;4.92;;
71176;SDS011;58877;51.992;4.504;2022-10-28T07:10:55;4.93;;;4.70;;
71176;SDS011;58877;51.992;4.504;2022-10-28T07:13:22;5.33;;;5.09;;
71176;SDS011;58877;51.992;4.504;2022-10-28T07:15:52;5.30;;;5.09;;
71176;SDS011;58877;51.992;4.504;2022-10-28T07:18:19;5.13;;;4.97;;
71176;SDS011;58877;51.992;4.504;2022-10-28T07:20:46;5.34;;;5.09;;
71176;SDS011;58877;51.992;4.504;2022-10-28T07:23:12;5.59;;;5.34;;
71176;SDS011;58877;51.992;4.504;2022-10-28T07:25:37;5.23;;;4.91;;
71176;SDS011;58877;51.992;4.504;2022-10-28T07:28:03;5.31;;;5.01;;
71176;SDS011;58877;51.992;4.504;2022-10-28T07:30:30;6.00;;;5.68;;
71176;SDS011;58877;51.992;4.504;2022-10-28T07:32:55;5.25;;;4.90;;
71176;SDS011;58877;51.992;4.504;2022-10-28T07:35:27;5.35;;;5.10;;
71176;SDS011;58877;51.992;4.504;2022-10-28T07:37:54;5.28;;;5.00;;
71176;SDS011;58877;51.992;4.504;2022-10-28T07:40:20;5.69;;;5.25;;
71176;SDS011;58877;51.992;4.504;2022-10-28T07:42:46;5.22;;;4.94;;
71176;SDS011;58877;51.992;4.504;2022-10-28T07:45:16;5.78;;;5.44;;
71176;SDS011;58877;51.992;4.504;2022-10-28T07:47:42;5.27;;;4.90;;
71176;SDS011;58877;51.992;4.504;2022-10-28T07:50:09;4.92;;;4.69;;
71176;SDS011;58877;51.992;4.504;2022-10-28T07:52:37;5.20;;;4.95;;
71176;SDS011;58877;51.992;4.504;2022-10-28T07:55:06;5.50;;;5.15;;
71176;SDS011;58877;51.992;4.504;2022-10-28T07:57:32;5.06;;;4.64;;
71176;SDS011;58877;51.992;4.504;2022-10-28T07:59:58;4.93;;;4.61;;
71176;SDS011;58877;51.992;4.504;2022-10-28T08:02:24;5.06;;;4.79;;
71176;SDS011;58877;51.992;4.504;2022-10-28T08:04:50;5.01;;;4.77;;
71176;SDS011;58877;51.992;4.504;2022-10-28T08:07:16;5.12;;;4.87;;
71176;SDS011;58877;51.992;4.504;2022-10-28T08:09:43;6.03;;;5.72;;
71176;SDS011;58877;51.992;4.504;2022-10-28T08:12:11;5.28;;;4.98;;
71176;SDS011;58877;51.992;4.504;2022-10-28T08:14:38;5.20;;;4.96;;
71176;SDS011;58877;51.992;4.504;2022-10-28T08:17:04;5.24;;;5.01;;
71176;SDS011;58877;51.992;4.504;2022-10-28T08:19:31;5.20;;;5.04;;
71176;SDS011;58877;51.992;4.504;2022-10-28T08:21:56;5.08;;;4.84;;
71176;SDS011;58877;51.992;4.504;2022-10-28T08:24:22;5.24;;;5.00;;
71176;SDS011;58877;51.992;4.504;2022-10-28T08:26:51;4.91;;;4.71;;
71176;SDS011;58877;51.992;4.504;2022-10-28T08:29:17;4.82;;;4.60;;
71176;SDS011;58877;51.992;4.504;2022-10-28T08:31:42;5.54;;;5.35;;
71176;SDS011;58877;51.992;4.504;2022-10-28T08:34:08;5.96;;;5.55;;
71176;SDS011;58877;51.992;4.504;2022-10-28T08:36:34;6.03;;;5.48;;
71176;SDS011;58877;51.992;4.504;2022-10-28T08:39:00;5.67;;;5.12;;
71176;SDS011;58877;51.992;4.504;2022-10-28T08:49:53;6.18;;;5.60;;
71176;SDS011;58877;51.992;4.504;2022-10-28T08:55:05;5.32;;;4.92;;
71176;SDS011;58877;51.992;4.504;2022-10-28T08:57:43;5.24;;;4.92;;
71176;SDS011;58877;51.992;4.504;2022-10-28T09:05:41;5.03;;;4.69;;
71176;SDS011;58877;51.992;4.504;2022-10-28T09:08:22;5.30;;;4.83;;
71176;SDS011;58877;51.992;4.504;2022-10-28T09:19:01;5.47;;;5.00;;
71176;SDS011;58877;51.992;4.504;2022-10-28T09:21:47;4.94;;;4.62;;
71176;SDS011;58877;51.992;4.504;2022-10-28T09:24:36;5.36;;;5.11;;
71176;SDS011;58877;51.992;4.504;2022-10-28T09:27:20;5.29;;;4.91;;
71176;SDS011;58877;51.992;4.504;2022-10-28T09:35:20;5.28;;;4.97;;
71176;SDS011;58877;51.992;4.504;2022-10-28T09:40:43;6.31;;;5.81;;
71176;SDS011;58877;51.992;4.504;2022-10-28T09:43:27;5.73;;;5.28;;
71176;SDS011;58877;51.992;4.504;2022-10-28T09:46:09;5.54;;;5.17;;
71176;SDS011;58877;51.992;4.504;2022-10-28T09:48:43;5.14;;;4.78;;
71176;SDS011;58877;51.992;4.504;2022-10-28T09:51:33;5.43;;;5.08;;
71176;SDS011;58877;51.992;4.504;2022-10-28T09:54:11;5.65;;;5.05;;
71176;SDS011;58877;51.992;4.504;2022-10-28T09:56:38;5.87;;;5.27;;
71176;SDS011;58877;51.992;4.504;2022-10-28T09:59:05;5.82;;;5.24;;
71176;SDS011;58877;51.992;4.504;2022-10-28T10:01:36;5.54;;;5.06;;
71176;SDS011;58877;51.992;4.504;2022-10-28T10:04:38;5.83;;;5.30;;
71176;SDS011;58877;51.992;4.504;2022-10-28T10:07:04;6.05;;;5.39;;
71176;SDS011;58877;51.992;4.504;2022-10-28T10:09:36;6.34;;;5.63;;
71176;SDS011;58877;51.992;4.504;2022-10-28T10:12:04;6.11;;;5.43;;
71176;SDS011;58877;51.992;4.504;2022-10-28T10:14:49;5.51;;;4.98;;
71176;SDS011;58877;51.992;4.504;2022-10-28T10:17:21;5.72;;;5.19;;
71176;SDS011;58877;51.992;4.504;2022-10-28T10:19:58;5.76;;;5.24;;
71176;SDS011;58877;51.992;4.504;2022-10-28T10:22:31;5.45;;;4.93;;
71176;SDS011;58877;51.992;4.504;2022-10-28T10:24:57;5.36;;;4.91;;
71176;SDS011;58877;51.992;4.504;2022-10-28T10:27:24;5.87;;;5.38;;
71176;SDS011;58877;51.992;4.504;2022-10-28T10:29:53;5.80;;;5.32;;
71176;SDS011;58877;51.992;4.504;2022-10-28T10:32:22;5.29;;;4.90;;
71176;SDS011;58877;51.992;4.504;2022-10-28T10:37:20;5.63;;;5.17;;
71176;SDS011;58877;51.992;4.504;2022-10-28T10:40:04;5.11;;;4.66;;
71176;SDS011;58877;51.992;4.504;2022-10-28T10:42:55;4.97;;;4.56;;
71176;SDS011;58877;51.992;4.504;2022-10-28T10:45:38;5.91;;;5.41;;
71176;SDS011;58877;51.992;4.504;2022-10-28T10:48:05;5.24;;;4.78;;
71176;SDS011;58877;51.992;4.504;2022-10-28T10:50:37;6.07;;;5.51;;
71176;SDS011;58877;51.992;4.504;2022-10-28T10:53:05;6.24;;;5.42;;
71176;SDS011;58877;51.992;4.504;2022-10-28T10:55:46;5.76;;;5.16;;
71176;SDS011;58877;51.992;4.504;2022-10-28T10:58:17;5.42;;;4.86;;
71176;SDS011;58877;51.992;4.504;2022-10-28T11:00:47;5.57;;;5.06;;
71176;SDS011;58877;51.992;4.504;2022-10-28T11:06:20;5.48;;;4.97;;
71176;SDS011;58877;51.992;4.504;2022-10-28T11:08:57;4.94;;;4.52;;
71176;SDS011;58877;51.992;4.504;2022-10-28T11:11:33;4.90;;;4.48;;
71176;SDS011;58877;51.992;4.504;2022-10-28T11:16:45;5.06;;;4.51;;
71176;SDS011;58877;51.992;4.504;2022-10-28T11:19:23;5.38;;;4.82;;
71176;SDS011;58877;51.992;4.504;2022-10-28T11:36:29;5.40;;;4.56;;
71176;SDS011;58877;51.992;4.504;2022-10-28T11:39:16;5.53;;;4.82;;
71176;SDS011;58877;51.992;4.504;2022-10-28T12:12:35;5.63;;;4.98;;
71176;SDS011;58877;51.992;4.504;2022-10-28T12:15:24;4.96;;;4.42;;
71176;SDS011;58877;51.992;4.504;2022-10-28T12:18:10;6.08;;;5.32;;
71176;SDS011;58877;51.992;4.504;2022-10-28T12:20:58;6.36;;;5.29;;
71176;SDS011;58877;51.992;4.504;2022-10-28T12:23:39;5.65;;;4.80;;
71176;SDS011;58877;51.992;4.504;2022-10-28T12:26:11;5.62;;;4.74;;
71176;SDS011;58877;51.992;4.504;2022-10-28T12:28:52;5.94;;;4.97;;
71176;SDS011;58877;51.992;4.504;2022-10-28T12:34:01;6.39;;;5.36;;
71176;SDS011;58877;51.992;4.504;2022-10-28T12:36:41;5.87;;;4.90;;
71176;SDS011;58877;51.992;4.504;2022-10-28T12:39:36;5.99;;;5.07;;
71176;SDS011;58877;51.992;4.504;2022-10-28T12:42:23;6.39;;;5.48;;
71176;SDS011;58877;51.992;4.504;2022-10-28T12:45:07;5.45;;;4.75;;
71176;SDS011;58877;51.992;4.504;2022-10-28T12:52:50;5.31;;;4.61;;
71176;SDS011;58877;51.992;4.504;2022-10-28T12:55:38;5.71;;;4.84;;
71176;SDS011;58877;51.992;4.504;2022-10-28T12:58:22;5.44;;;4.83;;
71176;SDS011;58877;51.992;4.504;2022-10-28T13:01:02;4.94;;;4.47;;
71176;SDS011;58877;51.992;4.504;2022-10-28T13:03:34;5.31;;;4.76;;
71176;SDS011;58877;51.992;4.504;2022-10-28T13:06:07;5.41;;;4.70;;
71176;SDS011;58877;51.992;4.504;2022-10-28T13:11:54;4.83;;;4.23;;
71176;SDS011;58877;51.992;4.504;2022-10-28T13:27:57;5.32;;;4.45;;
71176;SDS011;58877;51.992;4.504;2022-10-28T13:30:25;5.30;;;4.46;;
71176;SDS011;58877;51.992;4.504;2022-10-28T13:35:50;5.68;;;4.64;;
71176;SDS011;58877;51.992;4.504;2022-10-28T13:38:18;5.47;;;4.47;;
71176;SDS011;58877;51.992;4.504;2022-10-28T13:49:27;5.76;;;4.57;;
71176;SDS011;58877;51.992;4.504;2022-10-28T13:54:50;5.47;;;4.30;;
71176;SDS011;58877;51.992;4.504;2022-10-28T13:57:25;4.92;;;4.00;;
71176;SDS011;58877;51.992;4.504;2022-10-28T14:00:00;5.85;;;4.67;;
71176;SDS011;58877;51.992;4.504;2022-10-28T14:02:39;5.19;;;4.26;;
71176;SDS011;58877;51.992;4.504;2022-10-28T14:05:15;4.27;;;3.65;;
71176;SDS011;58877;51.992;4.504;2022-10-28T14:07:50;4.83;;;3.97;;
71176;SDS011;58877;51.992;4.504;2022-10-28T14:10:29;4.14;;;3.38;;
71176;SDS011;58877;51.992;4.504;2022-10-28T14:12:59;5.20;;;4.27;;
71176;SDS011;58877;51.992;4.504;2022-10-28T14:15:30;5.19;;;4.16;;
71176;SDS011;58877;51.992;4.504;2022-10-28T14:18:02;5.78;;;4.50;;
71176;SDS011;58877;51.992;4.504;2022-10-28T14:20:50;5.94;;;4.57;;
71176;SDS011;58877;51.992;4.504;2022-10-28T14:33:33;5.04;;;4.01;;
71176;SDS011;58877;51.992;4.504;2022-10-28T14:36:27;5.45;;;4.29;;
71176;SDS011;58877;51.992;4.504;2022-10-28T14:47:54;5.39;;;4.27;;
71176;SDS011;58877;51.992;4.504;2022-10-28T14:50:46;5.32;;;4.24;;
71176;SDS011;58877;51.992;4.504;2022-10-28T14:55:57;4.84;;;3.78;;
71176;SDS011;58877;51.992;4.504;2022-10-28T14:58:37;4.54;;;3.52;;
71176;SDS011;58877;51.992;4.504;2022-10-28T15:01:12;5.55;;;4.32;;
71176;SDS011;58877;51.992;4.504;2022-10-28T15:04:23;5.73;;;4.24;;
71176;SDS011;58877;51.992;4.504;2022-10-28T15:06:45;5.12;;;3.93;;
71176;SDS011;58877;51.992;4.504;2022-10-28T15:14:51;4.95;;;3.80;;
71176;SDS011;58877;51.992;4.504;2022-10-28T15:17:24;5.52;;;4.24;;
71176;SDS011;58877;51.992;4.504;2022-10-28T15:19:58;5.53;;;4.19;;
71176;SDS011;58877;51.992;4.504;2022-10-28T15:22:31;5.79;;;4.40;;
71176;SDS011;58877;51.992;4.504;2022-10-28T15:25:19;5.81;;;4.52;;
71176;SDS011;58877;51.992;4.504;2022-10-28T15:27:50;5.78;;;4.50;;
71176;SDS011;58877;51.992;4.504;2022-10-28T15:30:21;5.47;;;4.23;;
71176;SDS011;58877;51.992;4.504;2022-10-28T15:32:49;5.76;;;4.42;;
71176;SDS011;58877;51.992;4.504;2022-10-28T15:37:54;7.42;;;5.73;;
71176;SDS011;58877;51.992;4.504;2022-10-28T15:40:27;6.03;;;4.75;;
71176;SDS011;58877;51.992;4.504;2022-10-28T15:43:01;6.97;;;5.27;;
71176;SDS011;58877;51.992;4.504;2022-10-28T15:45:30;6.74;;;5.17;;
71176;SDS011;58877;51.992;4.504;2022-10-28T15:47:59;6.68;;;5.06;;
71176;SDS011;58877;51.992;4.504;2022-10-28T15:50:29;6.43;;;4.94;;
71176;SDS011;58877;51.992;4.504;2022-10-28T15:55:31;6.86;;;5.22;;
71176;SDS011;58877;51.992;4.504;2022-10-28T16:00:50;6.56;;;4.92;;
71176;SDS011;58877;51.992;4.504;2022-10-28T16:03:43;6.14;;;4.65;;
71176;SDS011;58877;51.992;4.504;2022-10-28T16:06:45;5.55;;;4.35;;
71176;SDS011;58877;51.992;4.504;2022-10-28T16:11:47;5.68;;;4.36;;
71176;SDS011;58877;51.992;4.504;2022-10-28T16:17:05;6.45;;;4.92;;
71176;SDS011;58877;51.992;4.504;2022-10-28T16:19:39;6.90;;;5.23;;
71176;SDS011;58877;51.992;4.504;2022-10-28T16:22:23;6.76;;;5.04;;
71176;SDS011;58877;51.992;4.504;2022-10-28T16:24:51;7.44;;;5.43;;
71176;SDS011;58877;51.992;4.504;2022-10-28T16:27:22;6.66;;;5.00;;
71176;SDS011;58877;51.992;4.504;2022-10-28T16:29:49;7.29;;;5.61;;
71176;SDS011;58877;51.992;4.504;2022-10-28T16:32:16;6.73;;;5.23;;
71176;SDS011;58877;51.992;4.504;2022-10-28T16:34:47;5.68;;;4.44;;
71176;SDS011;58877;51.992;4.504;2022-10-28T16:37:18;6.13;;;4.85;;
71176;SDS011;58877;51.992;4.504;2022-10-28T16:39:46;7.14;;;5.22;;
71176;SDS011;58877;51.992;4.504;2022-10-28T16:42:11;6.53;;;4.68;;
71176;SDS011;58877;51.992;4.504;2022-10-28T16:44:37;5.61;;;4.14;;
71176;SDS011;58877;51.992;4.504;2022-10-28T16:47:36;5.25;;;4.01;;
71176;SDS011;58877;51.992;4.504;2022-10-28T16:49:55;5.05;;;3.82;;
71176;SDS011;58877;51.992;4.504;2022-10-28T16:52:24;5.69;;;4.25;;
71176;SDS011;58877;51.992;4.504;2022-10-28T16:54:52;6.78;;;4.98;;
71176;SDS011;58877;51.992;4.504;2022-10-28T16:57:20;6.90;;;4.92;;
71176;SDS011;58877;51.992;4.504;2022-10-28T16:59:46;5.63;;;4.06;;
71176;SDS011;58877;51.992;4.504;2022-10-28T17:04:43;5.20;;;3.77;;
71176;SDS011;58877;51.992;4.504;2022-10-28T17:07:09;5.41;;;3.82;;
71176;SDS011;58877;51.992;4.504;2022-10-28T17:09:39;4.85;;;3.40;;
71176;SDS011;58877;51.992;4.504;2022-10-28T17:12:05;4.99;;;3.49;;
71176;SDS011;58877;51.992;4.504;2022-10-28T17:14:31;4.72;;;3.31;;
71176;SDS011;58877;51.992;4.504;2022-10-28T17:16:56;6.21;;;4.20;;
71176;SDS011;58877;51.992;4.504;2022-10-28T17:19:22;5.49;;;3.71;;
71176;SDS011;58877;51.992;4.504;2022-10-28T17:21:49;5.77;;;3.90;;
71176;SDS011;58877;51.992;4.504;2022-10-28T17:24:14;6.44;;;4.26;;
71176;SDS011;58877;51.992;4.504;2022-10-28T17:26:40;6.45;;;4.28;;
71176;SDS011;58877;51.992;4.504;2022-10-28T17:29:08;6.21;;;4.17;;
71176;SDS011;58877;51.992;4.504;2022-10-28T17:31:33;6.40;;;4.24;;
71176;SDS011;58877;51.992;4.504;2022-10-28T17:33:59;6.55;;;4.27;;
71176;SDS011;58877;51.992;4.504;2022-10-28T17:36:25;7.00;;;4.65;;
71176;SDS011;58877;51.992;4.504;2022-10-28T17:38:50;6.87;;;4.48;;
71176;SDS011;58877;51.992;4.504;2022-10-28T17:41:16;6.12;;;3.98;;
71176;SDS011;58877;51.992;4.504;2022-10-28T17:43:42;5.38;;;3.55;;
71176;SDS011;58877;51.992;4.504;2022-10-28T17:46:08;7.57;;;5.12;;
71176;SDS011;58877;51.992;4.504;2022-10-28T17:48:34;5.80;;;3.90;;
71176;SDS011;58877;51.992;4.504;2022-10-28T17:50:59;7.59;;;4.95;;
71176;SDS011;58877;51.992;4.504;2022-10-28T17:53:25;7.08;;;4.58;;
71176;SDS011;58877;51.992;4.504;2022-10-28T17:55:56;7.34;;;4.71;;
71176;SDS011;58877;51.992;4.504;2022-10-28T17:58:23;5.90;;;3.75;;
71176;SDS011;58877;51.992;4.504;2022-10-28T18:00:54;8.52;;;5.29;;
71176;SDS011;58877;51.992;4.504;2022-10-28T18:03:38;8.96;;;5.48;;
71176;SDS011;58877;51.992;4.504;2022-10-28T18:06:04;8.77;;;5.42;;
71176;SDS011;58877;51.992;4.504;2022-10-28T18:08:36;7.72;;;4.78;;
71176;SDS011;58877;51.992;4.504;2022-10-28T18:11:03;8.56;;;5.22;;
71176;SDS011;58877;51.992;4.504;2022-10-28T18:13:34;7.44;;;4.48;;
71176;SDS011;58877;51.992;4.504;2022-10-28T18:16:05;9.16;;;5.53;;
71176;SDS011;58877;51.992;4.504;2022-10-28T18:18:42;7.62;;;4.60;;
71176;SDS011;58877;51.992;4.504;2022-10-28T18:21:08;8.39;;;5.16;;
71176;SDS011;58877;51.992;4.504;2022-10-28T18:23:35;8.71;;;5.38;;
71176;SDS011;58877;51.992;4.504;2022-10-28T18:26:04;8.47;;;5.27;;
71176;SDS011;58877;51.992;4.504;2022-10-28T18:28:34;8.51;;;5.33;;
71176;SDS011;58877;51.992;4.504;2022-10-28T18:31:01;8.27;;;5.29;;
71176;SDS011;58877;51.992;4.504;2022-10-28T18:33:35;7.53;;;4.86;;
71176;SDS011;58877;51.992;4.504;2022-10-28T18:36:02;8.06;;;5.10;;
71176;SDS011;58877;51.992;4.504;2022-10-28T18:38:30;7.40;;;4.58;;
71176;SDS011;58877;51.992;4.504;2022-10-28T18:40:59;11.25;;;6.88;;
71176;SDS011;58877;51.992;4.504;2022-10-28T18:43:24;8.75;;;5.38;;
71176;SDS011;58877;51.992;4.504;2022-10-28T18:45:50;8.40;;;5.12;;